createdAt,value
2018-12-14T00:02:19.728Z,3.00
2018-12-14T00:04:46.057Z,3.00
2018-12-14T00:07:13.203Z,3.00
2018-12-14T00:09:39.403Z,3.00
2018-12-14T00:12:05.692Z,3.00
2018-12-14T00:14:33.107Z,3.00
2018-12-14T00:16:59.515Z,3.00
2018-12-14T00:19:25.694Z,3.00
2018-12-14T00:21:52.072Z,3.10
2018-12-14T00:24:18.354Z,3.10
2018-12-14T00:26:45.555Z,3.00
2018-12-14T00:29:18.779Z,3.10
2018-12-14T00:31:45.032Z,3.10
2018-12-14T00:34:12.141Z,3.10
2018-12-14T00:36:38.647Z,3.10
2018-12-14T00:39:05.132Z,3.00
2018-12-14T00:41:31.511Z,3.00
2018-12-14T00:43:57.692Z,3.00
2018-12-14T00:46:23.970Z,3.00
2018-12-14T00:48:50.239Z,3.00
2018-12-14T00:51:16.371Z,3.00
2018-12-14T00:53:42.773Z,3.00
2018-12-14T00:56:09.047Z,3.00
2018-12-14T00:58:35.192Z,3.00
2018-12-14T01:01:01.411Z,3.00
2018-12-14T01:03:27.672Z,3.00
2018-12-14T01:05:54.101Z,3.00
2018-12-14T01:08:20.682Z,3.00
2018-12-14T01:10:47.063Z,3.00
2018-12-14T01:13:13.421Z,3.00
2018-12-14T01:15:39.788Z,3.00
2018-12-14T01:18:06.101Z,3.00
2018-12-14T01:20:32.308Z,3.00
2018-12-14T01:22:58.437Z,3.00
2018-12-14T01:25:24.764Z,3.00
2018-12-14T01:27:50.931Z,3.00
2018-12-14T01:30:17.344Z,3.00
2018-12-14T01:32:43.494Z,3.10
2018-12-14T01:35:09.767Z,3.10
2018-12-14T01:37:35.996Z,3.10
2018-12-14T01:40:04.359Z,3.10
2018-12-14T01:42:30.718Z,3.10
2018-12-14T01:44:57.123Z,3.10
2018-12-14T01:47:24.107Z,3.10
2018-12-14T01:49:50.311Z,3.00
2018-12-14T01:52:16.930Z,3.00
2018-12-14T01:54:43.302Z,3.00
2018-12-14T01:57:09.540Z,3.10
2018-12-14T01:59:35.828Z,3.10
2018-12-14T02:02:02.176Z,3.10
2018-12-14T02:04:28.327Z,3.10
2018-12-14T02:06:54.621Z,3.10
2018-12-14T02:09:20.875Z,3.00
2018-12-14T02:11:53.643Z,3.00
2018-12-14T02:14:19.982Z,3.00
2018-12-14T02:16:46.340Z,3.00
2018-12-14T02:19:12.631Z,3.00
2018-12-14T02:21:38.935Z,3.00
2018-12-14T02:24:05.952Z,3.00
2018-12-14T02:26:32.276Z,3.00
2018-12-14T02:28:58.475Z,3.00
2018-12-14T02:31:24.963Z,3.00
2018-12-14T02:33:57.431Z,3.00
2018-12-14T02:36:23.727Z,3.00
2018-12-14T02:38:49.907Z,3.00
2018-12-14T02:41:16.924Z,3.00
2018-12-14T02:43:44.112Z,3.00
2018-12-14T02:46:10.486Z,3.00
2018-12-14T02:48:36.785Z,3.00
2018-12-14T02:51:03.133Z,3.00
2018-12-14T02:53:29.294Z,3.00
2018-12-14T02:55:55.645Z,3.00
2018-12-14T02:58:28.056Z,3.00
2018-12-14T03:00:54.389Z,3.00
2018-12-14T03:03:20.888Z,3.00
2018-12-14T03:05:47.079Z,3.00
2018-12-14T03:08:13.240Z,2.90
2018-12-14T03:10:39.844Z,2.90
2018-12-14T03:13:06.118Z,2.80
2018-12-14T03:15:38.513Z,2.80
2018-12-14T03:18:05.021Z,2.80
2018-12-14T03:20:31.307Z,2.80
2018-12-14T03:22:57.494Z,2.80
2018-12-14T03:25:23.801Z,2.80
2018-12-14T03:27:50.055Z,2.80
2018-12-14T03:30:16.232Z,2.80
2018-12-14T03:32:44.240Z,2.80
2018-12-14T03:35:12.553Z,2.80
2018-12-14T03:37:39.037Z,2.70
2018-12-14T03:40:05.650Z,2.70
2018-12-14T03:42:34.616Z,2.70
2018-12-14T03:45:00.171Z,2.70
2018-12-14T03:47:27.459Z,2.70
2018-12-14T03:49:53.937Z,2.70
2018-12-14T03:52:20.222Z,2.70
2018-12-14T03:54:46.644Z,2.70
2018-12-14T03:57:13.010Z,2.70
2018-12-14T03:59:39.946Z,2.70
2018-12-14T04:02:06.334Z,2.60
2018-12-14T04:04:38.701Z,2.60
2018-12-14T04:07:05.007Z,2.50
2018-12-14T04:09:31.270Z,2.50
2018-12-14T04:11:57.666Z,2.50
2018-12-14T04:14:23.969Z,2.50
2018-12-14T04:16:50.203Z,2.50
2018-12-14T04:19:16.535Z,2.50
2018-12-14T04:21:42.787Z,2.50
2018-12-14T04:24:09.076Z,2.50
2018-12-14T04:26:35.447Z,2.50
2018-12-14T04:29:01.828Z,2.50
2018-12-14T04:31:28.113Z,2.50
2018-12-14T04:33:54.318Z,2.50
2018-12-14T04:36:20.460Z,2.50
2018-12-14T04:38:46.725Z,2.50
2018-12-14T04:41:13.067Z,2.50
2018-12-14T04:43:45.590Z,2.40
2018-12-14T04:46:11.864Z,2.40
2018-12-14T04:48:38.060Z,2.40
2018-12-14T04:51:04.525Z,2.40
2018-12-14T04:53:31.793Z,2.40
2018-12-14T04:55:58.978Z,2.40
2018-12-14T04:58:25.209Z,2.50
2018-12-14T05:00:51.493Z,2.50
2018-12-14T05:03:18.567Z,2.50
2018-12-14T05:05:50.881Z,2.40
2018-12-14T05:08:17.270Z,2.50
2018-12-14T05:10:43.547Z,2.40
2018-12-14T05:13:10.790Z,2.40
2018-12-14T05:15:37.000Z,2.50
2018-12-14T05:18:05.051Z,2.40
2018-12-14T05:20:31.473Z,2.40
2018-12-14T05:22:57.814Z,2.40
2018-12-14T05:25:23.980Z,2.40
2018-12-14T05:27:50.139Z,2.40
2018-12-14T05:30:16.398Z,2.40
2018-12-14T05:32:42.602Z,2.40
2018-12-14T05:35:08.944Z,2.40
2018-12-14T05:37:35.331Z,2.40
2018-12-14T05:40:07.907Z,2.40
2018-12-14T05:42:34.265Z,2.40
2018-12-14T05:45:00.578Z,2.40
2018-12-14T05:47:26.716Z,2.40
2018-12-14T05:49:53.040Z,2.40
2018-12-14T05:52:25.623Z,2.30
2018-12-14T05:54:51.799Z,2.30
2018-12-14T05:57:18.384Z,2.40
2018-12-14T05:59:44.706Z,2.40
2018-12-14T06:02:10.979Z,2.30
2018-12-14T06:04:37.189Z,2.30
2018-12-14T06:07:08.845Z,2.30
2018-12-14T06:09:35.017Z,2.40
2018-12-14T06:12:08.007Z,2.30
2018-12-14T06:14:35.423Z,2.30
2018-12-14T06:17:01.792Z,2.30
2018-12-14T06:19:34.215Z,2.30
2018-12-14T06:22:01.204Z,2.30
2018-12-14T06:24:27.635Z,2.30
2018-12-14T06:27:00.322Z,2.40
2018-12-14T06:29:32.868Z,2.30
2018-12-14T06:31:59.055Z,2.30
2018-12-14T06:34:31.673Z,2.30
2018-12-14T06:36:58.213Z,2.40
2018-12-14T06:39:24.853Z,2.40
2018-12-14T06:41:57.778Z,2.40
2018-12-14T06:47:23.400Z,2.50
2018-12-14T06:49:49.691Z,2.40
2018-12-14T06:52:15.861Z,2.40
2018-12-14T06:54:42.246Z,2.30
2018-12-14T06:57:08.654Z,2.30
2018-12-14T06:59:40.948Z,2.30
2018-12-14T07:02:07.350Z,2.40
2018-12-14T07:04:39.671Z,2.40
2018-12-14T07:07:12.141Z,2.40
2018-12-14T07:09:44.635Z,2.50
2018-12-14T07:12:11.156Z,2.40
2018-12-14T07:14:37.475Z,2.40
2018-12-14T07:17:03.903Z,2.50
2018-12-14T07:19:36.460Z,2.50
2018-12-14T07:22:02.942Z,2.50
2018-12-14T07:24:29.292Z,2.50
2018-12-14T07:26:55.589Z,2.50
2018-12-14T07:29:21.758Z,2.50
2018-12-14T07:31:54.097Z,2.50
2018-12-14T07:34:26.642Z,2.50
2018-12-14T07:36:53.878Z,2.50
2018-12-14T07:39:20.200Z,2.50
2018-12-14T07:41:52.623Z,2.50
2018-12-14T07:44:18.799Z,2.50
2018-12-14T07:46:51.476Z,2.50
2018-12-14T07:49:24.006Z,2.50
2018-12-14T07:51:50.300Z,2.50
2018-12-14T07:54:22.743Z,2.50
2018-12-14T07:56:49.015Z,2.50
2018-12-14T07:59:21.507Z,2.50
2018-12-14T08:01:47.752Z,2.50
2018-12-14T08:04:20.506Z,2.50
2018-12-14T08:06:47.583Z,2.50
2018-12-14T08:09:13.891Z,2.60
2018-12-14T08:11:42.311Z,2.60
2018-12-14T08:14:08.655Z,2.60
2018-12-14T08:16:41.194Z,2.60
2018-12-14T08:19:13.894Z,2.60
2018-12-14T08:21:40.252Z,2.60
2018-12-14T08:24:06.729Z,2.60
2018-12-14T08:26:33.341Z,2.50
2018-12-14T08:29:05.792Z,2.50
2018-12-14T08:31:32.514Z,2.50
2018-12-14T08:34:05.144Z,2.50
2018-12-14T08:36:31.517Z,2.50
2018-12-14T08:39:04.819Z,2.50
2018-12-14T08:41:38.023Z,2.40
2018-12-14T08:44:04.582Z,2.30
2018-12-14T08:46:31.039Z,2.30
2018-12-14T08:49:03.641Z,2.30
2018-12-14T08:51:30.102Z,2.30
2018-12-14T08:54:02.814Z,2.30
2018-12-14T08:56:29.263Z,2.40
2018-12-14T08:58:55.709Z,2.50
2018-12-14T09:01:22.143Z,2.40
2018-12-14T09:03:54.788Z,2.40
2018-12-14T09:06:21.242Z,2.40
2018-12-14T09:08:47.620Z,2.50
2018-12-14T09:11:20.056Z,2.50
2018-12-14T09:13:47.949Z,2.50
2018-12-14T09:16:15.155Z,2.50
2018-12-14T09:18:41.520Z,2.60
2018-12-14T09:21:08.061Z,2.60
2018-12-14T09:23:35.479Z,2.60
2018-12-14T09:26:03.028Z,2.60
2018-12-14T09:28:29.471Z,2.60
2018-12-14T09:30:55.976Z,2.60
2018-12-14T09:33:22.427Z,2.60
2018-12-14T09:35:48.828Z,2.60
2018-12-14T09:38:16.243Z,2.50
2018-12-14T09:40:48.920Z,2.50
2018-12-14T09:43:15.121Z,2.60
2018-12-14T09:45:47.893Z,2.60
2018-12-14T09:48:14.333Z,2.60
2018-12-14T09:50:41.742Z,2.60
2018-12-14T09:53:14.371Z,2.60
2018-12-14T09:55:40.723Z,2.60
2018-12-14T09:58:13.347Z,2.60
2018-12-14T10:00:39.683Z,2.50
2018-12-14T10:03:07.127Z,2.60
2018-12-14T10:05:34.679Z,2.50
2018-12-14T10:08:07.194Z,2.60
2018-12-14T10:10:34.712Z,2.60
2018-12-14T10:13:01.003Z,2.60
2018-12-14T10:15:33.692Z,2.60
2018-12-14T10:17:59.963Z,2.60
2018-12-14T10:20:32.738Z,2.70
2018-12-14T10:23:05.432Z,2.70
2018-12-14T10:25:31.734Z,2.70
2018-12-14T10:28:04.296Z,2.70
2018-12-14T10:30:44.002Z,2.80
2018-12-14T10:33:10.316Z,2.80
2018-12-14T10:35:36.715Z,2.80
2018-12-14T10:38:04.057Z,2.90
2018-12-14T10:40:34.748Z,2.90
2018-12-14T10:43:07.528Z,2.90
2018-12-14T10:45:34.935Z,2.90
2018-12-14T10:48:01.337Z,2.90
2018-12-14T10:50:27.736Z,2.90
2018-12-14T10:52:54.091Z,3.00
2018-12-14T10:55:26.869Z,3.00
2018-12-14T10:57:59.554Z,3.00
2018-12-14T11:00:33.014Z,3.10
2018-12-14T11:02:59.718Z,3.10
2018-12-14T11:05:26.707Z,3.20
2018-12-14T11:07:53.196Z,3.20
2018-12-14T11:10:19.696Z,3.20
2018-12-14T11:12:45.990Z,3.30
2018-12-14T11:15:12.259Z,3.30
2018-12-14T11:17:44.619Z,3.40
2018-12-14T11:20:10.946Z,3.40
2018-12-14T11:22:37.322Z,3.40
2018-12-14T11:25:09.837Z,3.50
2018-12-14T11:27:42.513Z,3.50
2018-12-14T11:30:15.123Z,3.50
2018-12-14T11:32:41.427Z,3.50
2018-12-14T11:35:07.869Z,3.50
2018-12-14T11:37:35.096Z,3.50
2018-12-14T11:40:03.247Z,3.50
2018-12-14T11:45:28.318Z,3.60
2018-12-14T11:48:07.218Z,3.60
2018-12-14T11:50:33.734Z,3.60
2018-12-14T11:53:00.089Z,3.60
2018-12-14T11:55:26.450Z,3.60
2018-12-14T11:57:52.829Z,3.60
2018-12-14T12:00:19.191Z,3.60
2018-12-14T12:02:51.655Z,3.60
2018-12-14T12:05:24.225Z,3.60
2018-12-14T12:07:50.580Z,3.60
2018-12-14T12:10:16.746Z,3.60
2018-12-14T12:12:43.099Z,3.60
2018-12-14T12:15:14.555Z,3.60
2018-12-14T12:17:49.506Z,3.60
2018-12-14T12:20:21.912Z,3.60
2018-12-14T12:22:54.367Z,3.70
2018-12-14T12:25:27.087Z,3.70
2018-12-14T12:27:53.553Z,3.80
2018-12-14T12:30:20.040Z,3.80
2018-12-14T12:32:49.443Z,3.80
2018-12-14T12:35:16.617Z,3.90
2018-12-14T12:37:49.015Z,3.90
2018-12-14T12:40:15.527Z,4.00
2018-12-14T12:42:48.133Z,4.00
2018-12-14T12:45:18.241Z,4.10
2018-12-14T12:47:50.826Z,4.10
2018-12-14T12:50:19.471Z,4.00
2018-12-14T12:52:45.769Z,4.00
2018-12-14T12:55:12.118Z,4.00
2018-12-14T12:57:44.833Z,4.00
2018-12-14T13:00:11.295Z,3.90
2018-12-14T13:02:37.656Z,3.80
2018-12-14T13:05:10.230Z,3.80
2018-12-14T13:07:36.513Z,3.80
2018-12-14T13:10:03.607Z,3.80
2018-12-14T13:12:36.249Z,3.80
2018-12-14T13:15:03.981Z,3.80
2018-12-14T13:17:30.443Z,3.80
2018-12-14T13:19:56.768Z,3.80
2018-12-14T13:22:23.926Z,3.70
2018-12-14T13:24:50.309Z,3.70
2018-12-14T13:27:22.828Z,3.70
2018-12-14T13:29:49.188Z,3.70
2018-12-14T13:32:21.981Z,3.70
2018-12-14T13:34:54.598Z,3.70
2018-12-14T13:37:28.035Z,3.70
2018-12-14T13:39:54.330Z,3.70
2018-12-14T13:42:21.185Z,3.70
2018-12-14T13:44:47.660Z,3.70
2018-12-14T13:47:14.054Z,3.60
2018-12-14T13:49:40.766Z,3.70
2018-12-14T13:52:13.512Z,3.70
2018-12-14T13:54:40.956Z,3.70
2018-12-14T13:57:07.221Z,3.70
2018-12-14T13:59:33.588Z,3.60
2018-12-14T14:02:01.153Z,3.60
2018-12-14T14:04:35.880Z,3.50
2018-12-14T14:07:08.698Z,3.40
2018-12-14T14:09:41.496Z,3.30
2018-12-14T14:12:07.904Z,3.30
2018-12-14T14:14:40.551Z,3.20
2018-12-14T14:17:07.787Z,3.20
2018-12-14T14:19:37.194Z,3.20
2018-12-14T14:22:10.079Z,3.20
2018-12-14T14:24:36.332Z,3.20
2018-12-14T14:27:08.825Z,3.20
2018-12-14T14:29:41.425Z,3.20
2018-12-14T14:32:07.697Z,3.20
2018-12-14T14:34:34.111Z,3.20
2018-12-14T14:37:01.175Z,3.10
2018-12-14T14:39:28.637Z,3.00
2018-12-14T14:42:01.293Z,3.00
2018-12-14T14:44:27.644Z,2.90
2018-12-14T14:46:54.034Z,2.90
2018-12-14T14:49:20.661Z,2.90
2018-12-14T14:51:47.635Z,2.90
2018-12-14T14:54:13.996Z,2.80
2018-12-14T14:56:40.465Z,2.80
2018-12-14T14:59:07.173Z,2.80
2018-12-14T15:01:41.899Z,2.80
2018-12-14T15:04:15.889Z,2.80
2018-12-14T15:06:42.351Z,2.90
2018-12-14T15:09:09.189Z,2.80
2018-12-14T15:11:35.742Z,2.80
2018-12-14T15:14:08.036Z,2.80
2018-12-14T15:16:35.444Z,2.70
2018-12-14T15:19:01.907Z,2.70
2018-12-14T15:21:34.699Z,2.60
2018-12-14T15:24:07.107Z,2.60
2018-12-14T15:26:34.240Z,2.60
2018-12-14T15:29:06.919Z,2.50
2018-12-14T15:31:41.210Z,2.50
2018-12-14T15:34:14.129Z,2.40
2018-12-14T15:36:36.235Z,2.40
2018-12-14T15:39:08.871Z,2.40
2018-12-14T15:41:41.489Z,2.50
2018-12-14T15:44:15.093Z,2.50
2018-12-14T15:46:47.694Z,2.40
2018-12-14T15:49:14.264Z,2.40
2018-12-14T15:51:41.601Z,2.40
2018-12-14T15:54:14.004Z,2.40
2018-12-14T15:56:46.493Z,2.30
2018-12-14T15:59:12.943Z,2.30
2018-12-14T16:01:40.057Z,2.20
2018-12-14T16:04:06.633Z,2.20
2018-12-14T16:06:39.656Z,2.20
2018-12-14T16:09:06.295Z,2.20
2018-12-14T16:11:32.923Z,2.10
2018-12-14T16:14:06.127Z,2.10
2018-12-14T16:16:32.836Z,2.10
2018-12-14T16:19:05.413Z,2.00
2018-12-14T16:21:32.907Z,2.00
2018-12-14T16:24:06.148Z,2.00
2018-12-14T16:26:38.944Z,1.90
2018-12-14T16:29:05.638Z,1.80
2018-12-14T16:31:40.233Z,1.80
2018-12-14T16:34:06.939Z,1.70
2018-12-14T16:36:33.332Z,1.70
2018-12-14T16:39:06.074Z,1.70
2018-12-14T16:41:39.105Z,1.70
2018-12-14T16:44:05.667Z,1.70
2018-12-14T16:46:32.301Z,1.60
2018-12-14T16:48:58.605Z,1.60
2018-12-14T16:51:25.640Z,1.60
2018-12-14T16:53:58.056Z,1.60
2018-12-14T16:56:25.394Z,1.60
2018-12-14T16:58:52.840Z,1.60
2018-12-14T17:01:19.370Z,1.50
2018-12-14T17:03:45.697Z,1.50
2018-12-14T17:06:12.115Z,1.50
2018-12-14T17:08:38.600Z,1.50
2018-12-14T17:11:04.888Z,1.50
2018-12-14T17:13:31.328Z,1.50
2018-12-14T17:15:57.791Z,1.50
2018-12-14T17:18:24.129Z,1.40
2018-12-14T17:20:50.474Z,1.40
2018-12-14T17:23:17.700Z,1.40
2018-12-14T17:25:44.257Z,1.40
2018-12-14T17:28:16.918Z,1.40
2018-12-14T17:30:45.263Z,1.40
2018-12-14T17:33:11.975Z,1.40
2018-12-14T17:35:38.532Z,1.40
2018-12-14T17:38:05.055Z,1.50
2018-12-14T17:40:31.521Z,1.40
2018-12-14T17:42:58.189Z,1.40
2018-12-14T17:45:24.583Z,1.40
2018-12-14T17:47:56.903Z,1.40
2018-12-14T17:50:23.447Z,1.40
2018-12-14T17:52:50.720Z,1.50
2018-12-14T17:55:17.040Z,1.50
2018-12-14T17:57:43.434Z,1.50
2018-12-14T18:00:09.931Z,1.50
2018-12-14T18:02:36.324Z,1.50
2018-12-14T18:05:03.848Z,1.50
2018-12-14T18:07:30.238Z,1.50
2018-12-14T18:10:03.139Z,1.50
2018-12-14T18:12:30.503Z,1.60
2018-12-14T18:14:56.851Z,1.60
2018-12-14T18:17:23.279Z,1.60
2018-12-14T18:19:49.601Z,1.60
2018-12-14T18:22:16.284Z,1.60
2018-12-14T18:24:42.624Z,1.60
2018-12-14T18:27:08.818Z,1.60
2018-12-14T18:29:41.316Z,1.60
2018-12-14T18:32:13.776Z,1.70
2018-12-14T18:34:40.069Z,1.60
2018-12-14T18:37:06.547Z,1.60
2018-12-14T18:39:39.257Z,1.60
2018-12-14T18:42:11.779Z,1.60
2018-12-14T18:44:38.109Z,1.60
2018-12-14T18:47:10.683Z,1.60
2018-12-14T18:49:38.132Z,1.50
2018-12-14T18:52:04.520Z,1.60
2018-12-14T18:54:30.924Z,1.60
2018-12-14T18:56:57.226Z,1.60
2018-12-14T18:59:29.890Z,1.60
2018-12-14T19:01:56.463Z,1.60
2018-12-14T19:04:28.965Z,1.60
2018-12-14T19:06:55.639Z,1.70
2018-12-14T19:09:23.181Z,1.70
2018-12-14T19:11:56.653Z,1.70
2018-12-14T19:14:23.390Z,1.70
2018-12-14T19:16:56.313Z,1.70
2018-12-14T19:19:22.572Z,1.70
2018-12-14T19:21:49.960Z,1.70
2018-12-14T19:24:17.380Z,1.70
2018-12-14T19:26:43.782Z,1.70
2018-12-14T19:29:16.537Z,1.70
2018-12-14T19:31:43.032Z,1.70
2018-12-14T19:34:09.344Z,1.70
2018-12-14T19:36:36.065Z,1.70
2018-12-14T19:39:08.950Z,1.70
2018-12-14T19:41:42.464Z,1.70
2018-12-14T19:44:08.909Z,1.70
2018-12-14T19:46:35.163Z,1.70
2018-12-14T19:49:07.863Z,1.60
2018-12-14T19:51:34.204Z,1.60
2018-12-14T19:54:01.398Z,1.70
2018-12-14T19:56:33.967Z,1.60
2018-12-14T19:59:00.183Z,1.60
2018-12-14T20:01:32.759Z,1.60
2018-12-14T20:03:59.048Z,1.60
2018-12-14T20:06:25.225Z,1.60
2018-12-14T20:08:51.549Z,1.60
2018-12-14T20:11:17.869Z,1.60
2018-12-14T20:13:44.174Z,1.60
2018-12-14T20:16:16.408Z,1.60
2018-12-14T20:18:42.892Z,1.60
2018-12-14T20:21:09.346Z,1.60
2018-12-14T20:23:41.912Z,1.60
2018-12-14T20:26:08.172Z,1.60
2018-12-14T20:28:34.464Z,1.60
2018-12-14T20:31:01.846Z,1.60
2018-12-14T20:33:28.181Z,1.60
2018-12-14T20:35:54.463Z,1.70
2018-12-14T20:38:20.909Z,1.70
2018-12-14T20:40:47.214Z,1.70
2018-12-14T20:43:13.574Z,1.70
2018-12-14T20:45:46.151Z,1.60
2018-12-14T20:48:18.763Z,1.60
2018-12-14T20:50:45.070Z,1.50
2018-12-14T20:53:11.367Z,1.60
2018-12-14T20:55:37.658Z,1.60
2018-12-14T20:58:04.091Z,1.60
2018-12-14T21:00:30.431Z,1.60
2018-12-14T21:03:02.701Z,1.60
2018-12-14T21:05:29.058Z,1.60
2018-12-14T21:07:55.208Z,1.60
2018-12-14T21:10:21.587Z,1.60
2018-12-14T21:12:47.899Z,1.60
2018-12-14T21:15:15.165Z,1.60
2018-12-14T21:17:41.364Z,1.60
2018-12-14T21:20:08.707Z,1.60
2018-12-14T21:22:35.177Z,1.60
2018-12-14T21:25:01.727Z,1.60
2018-12-14T21:27:28.067Z,1.60
2018-12-14T21:29:54.249Z,1.60
2018-12-14T21:32:20.667Z,1.60
2018-12-14T21:34:47.080Z,1.60
2018-12-14T21:37:19.594Z,1.60
2018-12-14T21:39:46.867Z,1.60
2018-12-14T21:42:13.120Z,1.50
2018-12-14T21:44:39.499Z,1.50
2018-12-14T21:47:05.868Z,1.60
2018-12-14T21:49:45.297Z,1.60
2018-12-14T21:52:11.701Z,1.60
2018-12-14T21:54:44.165Z,1.60
2018-12-14T21:57:10.596Z,1.60
2018-12-14T21:59:36.792Z,1.60
2018-12-14T22:02:03.330Z,1.60
2018-12-14T22:04:35.986Z,1.60
2018-12-14T22:07:03.317Z,1.60
2018-12-14T22:09:29.565Z,1.60
2018-12-14T22:11:55.943Z,1.60
2018-12-14T22:14:22.928Z,1.60
2018-12-14T22:16:55.470Z,1.60
2018-12-14T22:19:21.727Z,1.70
2018-12-14T22:21:47.938Z,1.60
2018-12-14T22:24:14.128Z,1.60
2018-12-14T22:26:40.607Z,1.70
2018-12-14T22:29:13.291Z,1.60
2018-12-14T22:31:39.629Z,1.60
2018-12-14T22:34:06.847Z,1.60
2018-12-14T22:36:33.072Z,1.60
2018-12-14T22:38:59.342Z,1.60
2018-12-14T22:41:25.782Z,1.60
2018-12-14T22:43:57.170Z,1.60
2018-12-14T22:46:23.451Z,1.60
2018-12-14T22:48:50.608Z,1.60
2018-12-14T22:51:17.000Z,1.60
2018-12-14T22:53:49.411Z,1.60
2018-12-14T22:56:15.727Z,1.70
2018-12-14T22:58:42.056Z,1.70
2018-12-14T23:01:14.897Z,1.70
2018-12-14T23:03:47.383Z,1.70
2018-12-14T23:06:13.572Z,1.70
2018-12-14T23:08:46.229Z,1.70
2018-12-14T23:11:18.747Z,1.60
2018-12-14T23:13:45.927Z,1.70
2018-12-14T23:16:18.555Z,1.70
2018-12-14T23:18:45.734Z,1.60
2018-12-14T23:21:12.014Z,1.60
2018-12-14T23:23:39.154Z,1.60
2018-12-14T23:26:05.522Z,1.60
2018-12-14T23:28:31.865Z,1.60
2018-12-14T23:30:58.057Z,1.60
2018-12-14T23:33:24.245Z,1.70
2018-12-14T23:35:50.383Z,1.70
2018-12-14T23:38:16.522Z,1.70
2018-12-14T23:40:42.677Z,1.70
2018-12-14T23:43:08.828Z,1.70
2018-12-14T23:45:35.118Z,1.70
2018-12-14T23:48:02.322Z,1.70
2018-12-14T23:50:28.654Z,1.70
2018-12-14T23:52:55.027Z,1.70
2018-12-14T23:55:21.448Z,1.70
2018-12-14T23:57:47.671Z,1.70
